Marine On Saint Croix, Minnesota
Current Conditions -  °F | °C
As of 9:55 PM on Wednesday 22 Oct 2014 (Local Time) from KOEO Reporting Station
Broken Clouds Broken Clouds  
Wind Chill: 53°   Ceiling: 8000
Heat Index: 53°   Visibility: 10mi
Dew Point: 39°   Wind: 6mph
Humidity: 59%   Direction: 150°SSE
Pressure: 30.1"   Gusts: NA
Location:  45.37°N, 92.77°W
Report Text: KOEO 230255Z AUTO 15005KT 10SM SCT070 BKN080 12/04 A3010 RMK AO2 T01180040
Loading
Personal Weather Stations






























Interactive Weather Map
Tropical Storm Tracking
New forecast layout! Learn more

10-Day Weather Forecast

Advertisements
Track Severe Weather on mobile